Time;durP1;ratioP1;P1;durP2;ratioP2;P2;SDS_P1;SDS_P2;PMS_P1;PMS_P2;Temp;Humidity;BMP_temperature;BMP_pressure;BME280_temperature;BME280_humidity;BME280_pressure;Samples;Min_cycle;Max_cycle;Signal;HPM_P1;HPM_P2
2023/06/13 00:01:48;;;;;;;7.50;3.53;;;19.40;60.40;;;;;;4998391;28;20481;-61
2023/06/13 00:04:21;;;;;;;8.80;3.53;;;19.30;60.40;;;;;;4992364;28;20070;-61
2023/06/13 00:06:50;;;;;;;8.38;3.40;;;19.30;60.70;;;;;;5011896;28;20042;-61
2023/06/13 00:09:18;;;;;;;5.75;2.97;;;19.20;60.90;;;;;;4999709;28;20044;-61
2023/06/13 00:11:49;;;;;;;6.10;3.13;;;19.20;60.90;;;;;;4999932;28;20058;-61
2023/06/13 00:14:19;;;;;;;5.45;3.45;;;19.10;60.90;;;;;;5005090;28;20370;-61
2023/06/13 00:16:50;;;;;;;7.10;3.50;;;19.10;60.90;;;;;;5018044;28;20465;-61
2023/06/13 00:19:17;;;;;;;6.25;3.30;;;19.10;60.90;;;;;;4985400;28;20049;-61
2023/06/13 00:21:45;;;;;;;3.75;3.35;;;19.00;60.90;;;;;;5016773;28;20049;-61
2023/06/13 00:24:11;;;;;;;7.72;3.80;;;19.00;60.90;;;;;;5021522;28;20466;-60
2023/06/13 00:26:37;;;;;;;6.60;3.72;;;19.00;60.80;;;;;;5001477;28;20194;-61
2023/06/13 00:29:03;;;;;;;6.07;3.50;;;18.90;60.80;;;;;;5018254;28;20470;-62
2023/06/13 00:31:29;;;;;;;6.60;3.65;;;18.90;60.80;;;;;;5015567;28;20037;-61
2023/06/13 00:33:56;;;;;;;8.70;3.67;;;18.90;60.90;;;;;;4999777;28;20041;-61
2023/06/13 00:36:24;;;;;;;6.45;3.33;;;18.90;60.90;;;;;;5016443;28;20048;-61
2023/06/13 00:38:51;;;;;;;4.95;4.03;;;18.80;60.90;;;;;;5020876;28;20050;-61
2023/06/13 00:41:17;;;;;;;12.50;3.88;;;18.80;61.00;;;;;;5016046;28;20052;-61
2023/06/13 00:43:43;;;;;;;7.63;3.45;;;18.70;60.90;;;;;;5019793;28;20037;-61
2023/06/13 00:46:09;;;;;;;6.75;3.78;;;18.70;61.00;;;;;;5016310;28;20599;-61
2023/06/13 00:48:37;;;;;;;9.25;3.70;;;18.70;61.00;;;;;;5015242;28;20354;-60
2023/06/13 00:51:03;;;;;;;5.40;4.15;;;18.70;61.00;;;;;;5019846;28;20038;-61
2023/06/13 00:53:31;;;;;;;10.38;3.95;;;18.60;60.90;;;;;;5002271;28;20162;-61
2023/06/13 00:55:59;;;;;;;7.25;4.63;;;18.60;61.10;;;;;;4982443;28;20073;-61
2023/06/13 00:58:25;;;;;;;7.35;4.03;;;18.60;61.20;;;;;;5016610;28;20042;-61
2023/06/13 01:00:53;;;;;;;5.82;4.45;;;18.60;61.20;;;;;;5002376;28;20044;-61
2023/06/13 01:03:19;;;;;;;10.68;4.45;;;18.50;61.30;;;;;;5017428;28;20052;-61
2023/06/13 01:05:47;;;;;;;7.68;4.47;;;18.50;61.30;;;;;;4994292;28;20119;-62
2023/06/13 01:08:18;;;;;;;9.40;4.82;;;18.40;61.30;;;;;;5014788;28;20079;-61
2023/06/13 01:10:49;;;;;;;10.52;4.45;;;18.50;61.40;;;;;;4990146;28;20081;-62
2023/06/13 01:13:31;;;;;;;9.05;4.43;;;18.40;61.30;;;;;;4995269;28;20049;-62
2023/06/13 01:16:03;;;;;;;10.73;4.22;;;18.40;62.10;;;;;;5002296;28;20504;-61
2023/06/13 01:18:35;;;;;;;6.63;3.92;;;18.30;61.50;;;;;;4981981;28;20693;-59
2023/06/13 01:21:02;;;;;;;8.43;4.55;;;18.30;61.50;;;;;;5016080;28;20108;-61
2023/06/13 01:23:54;;;;;;;6.25;4.28;;;18.20;61.60;;;;;;4983509;28;20111;-61
2023/06/13 01:26:52;;;;;;;12.63;4.70;;;18.20;61.70;;;;;;5010277;28;20045;-61
2023/06/13 01:29:19;;;;;;;11.80;4.70;;;18.20;61.70;;;;;;5008294;28;20056;-61
2023/06/13 01:31:50;;;;;;;6.63;4.68;;;18.10;61.80;;;;;;4997064;28;20772;-61
2023/06/13 01:34:17;;;;;;;8.70;4.53;;;18.10;61.90;;;;;;4998111;28;20049;-61
2023/06/13 01:36:43;;;;;;;5.80;4.55;;;18.10;62.00;;;;;;5015618;28;20437;-61
2023/06/13 01:39:08;;;;;;;8.73;4.53;;;18.10;62.00;;;;;;5015795;28;20486;-61
2023/06/13 01:41:34;;;;;;;9.52;4.65;;;18.00;62.00;;;;;;5015062;28;20041;-61
2023/06/13 01:44:05;;;;;;;6.05;5.25;;;18.00;62.10;;;;;;4983533;28;20057;-61
2023/06/13 01:46:41;;;;;;;7.68;4.65;;;18.00;62.30;;;;;;5017565;28;20046;-61
2023/06/13 01:49:32;;;;;;;6.32;4.80;;;17.90;62.20;;;;;;4999022;28;20494;-61
2023/06/13 01:52:07;;;;;;;8.55;5.32;;;17.90;62.30;;;;;;5000015;28;20042;-61
2023/06/13 01:54:37;;;;;;;7.70;4.95;;;17.90;62.50;;;;;;5017802;28;20092;-61
2023/06/13 01:57:07;;;;;;;5.93;5.03;;;17.80;62.50;;;;;;5000577;28;20033;-60
2023/06/13 01:59:33;;;;;;;9.93;5.32;;;17.80;62.50;;;;;;5001814;28;20270;-61
2023/06/13 02:02:01;;;;;;;7.25;5.35;;;17.80;62.50;;;;;;5015457;28;20401;-61
2023/06/13 02:04:27;;;;;;;9.07;5.15;;;17.70;62.60;;;;;;4997658;28;20037;-61
2023/06/13 02:06:52;;;;;;;9.15;5.15;;;17.70;62.50;;;;;;5003012;28;20486;-59
2023/06/13 02:09:18;;;;;;;8.15;4.82;;;17.70;62.70;;;;;;5019900;28;20107;-60
2023/06/13 02:11:44;;;;;;;7.55;4.93;;;17.60;63.30;;;;;;5000577;28;20045;-61
2023/06/13 02:14:10;;;;;;;5.70;4.93;;;17.60;62.80;;;;;;5017887;28;20029;-61
2023/06/13 02:16:39;;;;;;;8.25;4.75;;;17.60;63.10;;;;;;5015359;28;20132;-61
2023/06/13 02:19:07;;;;;;;7.20;4.55;;;17.50;63.30;;;;;;4981856;28;20042;-61
2023/06/13 02:21:32;;;;;;;10.70;4.68;;;17.50;63.70;;;;;;5020225;28;20057;-61
2023/06/13 02:23:58;;;;;;;7.10;4.82;;;17.40;64.00;;;;;;5018527;28;20182;-60
2023/06/13 02:26:28;;;;;;;8.68;4.32;;;17.40;64.60;;;;;;5015075;28;20038;-61
2023/06/13 02:28:57;;;;;;;8.88;4.15;;;17.30;64.80;;;;;;5000656;28;20280;-61
2023/06/13 02:31:23;;;;;;;8.85;4.32;;;17.30;65.10;;;;;;5018370;28;20049;-61
2023/06/13 02:33:49;;;;;;;8.93;4.20;;;17.20;65.40;;;;;;5018450;28;20529;-60
2023/06/13 02:36:15;;;;;;;7.07;4.10;;;17.10;65.60;;;;;;4986462;28;20057;-60
2023/06/13 02:38:42;;;;;;;8.35;4.43;;;17.10;65.80;;;;;;5017584;28;20071;-61
2023/06/13 02:41:08;;;;;;;4.63;3.88;;;17.00;65.80;;;;;;4997284;28;20077;-61
2023/06/13 02:43:34;;;;;;;19.30;4.03;;;16.90;65.90;;;;;;4980991;28;20077;-61
2023/06/13 02:46:00;;;;;;;9.30;4.22;;;16.90;66.00;;;;;;4999352;28;20045;-61
2023/06/13 02:48:28;;;;;;;6.47;4.20;;;16.80;66.10;;;;;;5021061;28;20050;-61
2023/06/13 02:50:55;;;;;;;8.68;4.35;;;16.80;66.00;;;;;;5001769;28;20095;-61
2023/06/13 02:53:21;;;;;;;6.75;3.92;;;16.80;66.10;;;;;;4997461;28;20037;-61
2023/06/13 02:55:48;;;;;;;8.65;4.05;;;16.70;66.00;;;;;;4997424;28;20065;-60
2023/06/13 02:58:13;;;;;;;11.75;4.40;;;16.70;66.00;;;;;;4979999;28;20044;-61
2023/06/13 03:00:40;;;;;;;6.82;4.40;;;16.70;66.00;;;;;;5005788;28;20406;-60
2023/06/13 03:03:06;;;;;;;5.78;4.22;;;16.70;66.10;;;;;;5022213;28;20132;-61
2023/06/13 03:05:32;;;;;;;5.28;4.03;;;16.60;66.00;;;;;;5003455;28;20046;-61
2023/06/13 03:07:59;;;;;;;11.68;4.15;;;16.60;65.80;;;;;;4969708;28;20049;-61
2023/06/13 03:10:25;;;;;;;5.78;4.40;;;16.60;65.90;;;;;;5004756;28;20049;-61
2023/06/13 03:12:51;;;;;;;6.70;4.32;;;16.60;65.70;;;;;;4968233;28;20041;-61
2023/06/13 03:15:17;;;;;;;6.45;4.10;;;16.60;65.60;;;;;;5004239;28;20030;-61
2023/06/13 03:17:44;;;;;;;6.78;4.07;;;16.60;65.50;;;;;;4998242;28;20126;-61
2023/06/13 03:20:11;;;;;;;5.32;4.20;;;16.60;65.40;;;;;;5019897;28;20046;-62
2023/06/13 03:22:37;;;;;;;6.57;4.00;;;16.50;65.30;;;;;;5016771;28;20045;-61
2023/06/13 03:25:04;;;;;;;8.00;4.35;;;16.60;65.10;;;;;;5022496;28;20118;-61
2023/06/13 03:27:31;;;;;;;7.22;4.50;;;16.60;64.90;;;;;;5006559;28;20042;-60
2023/06/13 03:29:57;;;;;;;5.85;4.43;;;16.60;64.70;;;;;;5022461;28;20103;-61
2023/06/13 03:32:23;;;;;;;10.25;4.57;;;16.60;64.50;;;;;;5001811;28;20045;-61
2023/06/13 03:34:50;;;;;;;7.28;4.40;;;16.60;64.40;;;;;;5019193;28;20041;-60
2023/06/13 03:37:16;;;;;;;6.75;4.20;;;16.60;64.40;;;;;;5002057;28;20398;-61
2023/06/13 03:39:41;;;;;;;5.57;4.18;;;16.60;64.30;;;;;;5018689;28;20037;-61
2023/06/13 03:42:07;;;;;;;6.32;4.20;;;16.60;64.10;;;;;;5002561;28;20042;-61
2023/06/13 03:44:33;;;;;;;6.80;4.18;;;16.60;64.00;;;;;;5002319;28;20477;-61
2023/06/13 03:46:59;;;;;;;9.90;4.63;;;16.50;63.90;;;;;;5018596;28;20037;-62
2023/06/13 03:49:25;;;;;;;8.68;4.40;;;16.50;63.80;;;;;;4986660;28;20370;-62
2023/06/13 03:51:51;;;;;;;4.80;4.05;;;16.50;63.70;;;;;;5020200;28;20081;-61
2023/06/13 03:54:20;;;;;;;7.60;4.25;;;16.50;63.80;;;;;;5002171;28;20120;-61
2023/06/13 03:56:45;;;;;;;9.07;4.40;;;16.50;63.70;;;;;;5000154;28;20046;-61
2023/06/13 03:59:11;;;;;;;8.23;4.35;;;16.50;63.50;;;;;;4974700;28;20048;-61
2023/06/13 04:01:37;;;;;;;9.02;4.20;;;16.50;63.50;;;;;;5019251;28;20045;-61
2023/06/13 04:04:03;;;;;;;6.28;4.88;;;16.50;63.30;;;;;;5015031;28;20459;-61
2023/06/13 04:06:29;;;;;;;10.45;4.63;;;16.50;63.10;;;;;;5021271;28;20033;-61
2023/06/13 04:08:57;;;;;;;8.93;4.32;;;16.50;63.10;;;;;;5017659;28;20076;-62
2023/06/13 04:11:23;;;;;;;6.63;4.20;;;16.50;62.80;;;;;;5016653;28;20046;-61
2023/06/13 04:13:49;;;;;;;7.28;4.35;;;16.60;62.70;;;;;;5017449;28;20038;-61
2023/06/13 04:16:14;;;;;;;6.47;4.13;;;16.60;62.90;;;;;;5004640;28;21141;-61
2023/06/13 04:18:43;;;;;;;6.65;4.40;;;16.60;62.90;;;;;;5018546;28;20271;-61
2023/06/13 04:21:09;;;;;;;13.60;4.63;;;16.50;62.90;;;;;;5002067;28;20046;-61
2023/06/13 04:23:35;;;;;;;7.65;4.30;;;16.60;63.10;;;;;;5006015;28;20045;-61
2023/06/13 04:26:05;;;;;;;9.73;4.63;;;16.60;63.30;;;;;;5018094;28;20048;-61
2023/06/13 04:28:32;;;;;;;8.02;4.32;;;16.60;63.90;;;;;;5020395;28;20569;-61
2023/06/13 04:31:00;;;;;;;8.52;4.88;;;16.50;64.10;;;;;;5017134;28;20629;-61
2023/06/13 04:33:26;;;;;;;10.48;4.55;;;16.50;64.40;;;;;;5019513;28;20049;-62
2023/06/13 04:35:54;;;;;;;6.68;4.68;;;16.50;64.80;;;;;;4992854;28;20080;-61
2023/06/13 04:38:21;;;;;;;6.97;4.60;;;16.50;65.40;;;;;;5020220;28;20044;-62
2023/06/13 04:40:48;;;;;;;11.07;4.72;;;16.50;65.90;;;;;;4996506;28;20051;-62
2023/06/13 04:43:17;;;;;;;8.35;4.70;;;16.40;66.30;;;;;;4994972;28;20042;-62
2023/06/13 04:45:43;;;;;;;11.23;4.82;;;16.40;66.90;;;;;;5019176;28;20402;-61
2023/06/13 04:48:11;;;;;;;7.68;4.45;;;16.30;67.30;;;;;;4997840;28;20042;-61
2023/06/13 04:50:40;;;;;;;8.13;5.00;;;16.30;67.50;;;;;;4983155;28;20049;-62
2023/06/13 04:53:11;;;;;;;6.28;4.85;;;16.30;68.10;;;;;;5005810;28;20045;-62
2023/06/13 04:55:40;;;;;;;5.80;4.50;;;16.30;68.30;;;;;;5008357;28;20050;-61
2023/06/13 04:58:07;;;;;;;5.82;4.78;;;16.30;68.40;;;;;;4996367;28;20048;-61
2023/06/13 05:00:32;;;;;;;6.03;4.70;;;16.30;68.60;;;;;;5014216;28;20087;-61
2023/06/13 05:03:00;;;;;;;6.38;4.55;;;16.30;68.60;;;;;;5015181;28;20449;-61
2023/06/13 05:05:26;;;;;;;6.93;4.47;;;16.40;68.60;;;;;;4999774;28;20041;-61
2023/06/13 05:07:55;;;;;;;8.57;4.38;;;16.40;68.80;;;;;;5008416;28;20053;-61
2023/06/13 05:10:28;;;;;;;6.05;4.68;;;16.40;68.90;;;;;;4996335;28;20038;-61
2023/06/13 05:12:55;;;;;;;8.57;4.57;;;16.40;68.80;;;;;;4994628;28;20041;-61
2023/06/13 05:15:21;;;;;;;6.85;4.25;;;16.50;68.80;;;;;;5013656;28;20422;-61
2023/06/13 05:17:48;;;;;;;6.70;4.35;;;16.60;68.90;;;;;;4993308;28;20054;-60
2023/06/13 05:20:20;;;;;;;8.70;4.50;;;16.60;68.90;;;;;;5012788;28;20502;-61
2023/06/13 05:22:47;;;;;;;5.78;4.32;;;16.60;68.40;;;;;;4952634;28;20466;-61
2023/06/13 05:25:13;;;;;;;7.03;4.05;;;16.70;67.90;;;;;;4996972;28;20037;-61
2023/06/13 05:27:39;;;;;;;8.63;4.07;;;16.80;67.30;;;;;;4980153;28;20048;-62
2023/06/13 05:30:11;;;;;;;9.98;4.38;;;16.90;66.80;;;;;;4990619;28;20052;-61
2023/06/13 05:32:37;;;;;;;11.55;4.05;;;16.90;66.00;;;;;;4993065;28;20490;-62
2023/06/13 05:35:03;;;;;;;7.35;4.25;;;17.00;65.50;;;;;;5004278;28;20071;-61
2023/06/13 05:37:29;;;;;;;11.18;4.03;;;17.10;65.00;;;;;;4990857;28;20128;-61
2023/06/13 05:39:56;;;;;;;6.65;4.00;;;17.10;64.70;;;;;;4993798;28;20088;-62
2023/06/13 05:42:22;;;;;;;9.25;3.67;;;17.20;65.00;;;;;;4991720;28;20029;-62
2023/06/13 05:44:48;;;;;;;7.22;4.30;;;17.30;65.20;;;;;;4969505;28;20041;-61
2023/06/13 05:47:14;;;;;;;7.40;4.03;;;17.40;65.60;;;;;;5015742;28;20041;-62
2023/06/13 05:49:45;;;;;;;6.10;3.92;;;17.40;66.50;;;;;;4994249;28;20056;-62
2023/06/13 05:52:11;;;;;;;6.68;4.20;;;17.50;67.10;;;;;;4996632;28;20045;-62
2023/06/13 05:54:36;;;;;;;6.68;4.30;;;17.60;67.30;;;;;;5015306;28;20095;-62
2023/06/13 05:57:02;;;;;;;8.50;3.83;;;17.70;67.40;;;;;;5010820;28;20493;-62
2023/06/13 05:59:28;;;;;;;8.23;4.03;;;17.80;67.30;;;;;;5010830;28;20040;-62
2023/06/13 06:01:54;;;;;;;8.30;3.95;;;17.80;67.30;;;;;;5009564;28;20088;-64
2023/06/13 06:04:20;;;;;;;5.00;4.00;;;18.00;67.10;;;;;;4991874;28;20037;-63
2023/06/13 06:06:45;;;;;;;14.07;4.22;;;18.00;66.90;;;;;;4982476;28;20231;-63
2023/06/13 06:09:11;;;;;;;8.05;3.70;;;18.10;66.30;;;;;;4997394;28;20041;-64
2023/06/13 06:11:37;;;;;;;9.27;3.92;;;18.20;65.50;;;;;;5012514;28;20091;-62
2023/06/13 06:14:03;;;;;;;6.32;3.55;;;18.30;65.50;;;;;;4998709;28;20046;-62
2023/06/13 06:16:29;;;;;;;7.75;3.40;;;18.50;64.70;;;;;;5016991;28;20072;-62
2023/06/13 06:18:55;;;;;;;8.60;3.60;;;18.60;64.10;;;;;;4998569;28;20103;-62
2023/06/13 06:21:21;;;;;;;8.45;3.33;;;18.70;63.60;;;;;;5016248;28;20045;-62
2023/06/13 06:23:47;;;;;;;14.60;3.63;;;18.90;63.00;;;;;;5017782;28;20096;-62
2023/06/13 06:26:13;;;;;;;13.15;3.63;;;19.00;62.60;;;;;;4995003;28;20045;-62
2023/06/13 06:28:39;;;;;;;8.00;3.25;;;19.10;62.40;;;;;;5016313;28;20482;-62
2023/06/13 06:31:07;;;;;;;8.10;3.15;;;19.30;61.80;;;;;;5002290;28;20168;-62
2023/06/13 06:33:33;;;;;;;9.00;3.78;;;19.40;61.00;;;;;;5000576;28;20437;-62
2023/06/13 06:35:59;;;;;;;4.45;3.00;;;19.50;60.30;;;;;;5006048;28;20037;-62
2023/06/13 06:38:25;;;;;;;6.38;2.80;;;19.60;59.80;;;;;;4984426;28;20532;-61
2023/06/13 06:40:51;;;;;;;6.20;3.00;;;19.70;58.80;;;;;;4999428;28;20084;-62
2023/06/13 06:43:17;;;;;;;5.28;2.78;;;19.80;58.00;;;;;;4998265;28;20033;-62
2023/06/13 06:45:42;;;;;;;9.05;2.88;;;19.90;57.00;;;;;;4986062;28;20042;-63
2023/06/13 06:48:08;;;;;;;6.43;2.78;;;20.00;56.70;;;;;;5018902;28;20034;-62
2023/06/13 06:50:34;;;;;;;4.50;2.65;;;20.20;56.00;;;;;;4999611;28;20068;-62
2023/06/13 06:52:59;;;;;;;6.32;2.47;;;20.30;55.30;;;;;;4999108;28;20112;-62
2023/06/13 06:55:25;;;;;;;7.07;2.60;;;20.40;54.20;;;;;;4999744;28;20046;-62
2023/06/13 06:57:53;;;;;;;7.13;2.55;;;20.50;53.30;;;;;;5019876;28;20033;-62
2023/06/13 07:00:22;;;;;;;9.93;2.65;;;20.60;53.10;;;;;;5019803;28;20038;-62
2023/06/13 07:02:49;;;;;;;5.90;2.70;;;20.70;52.90;;;;;;5000429;28;20053;-62
2023/06/13 07:05:15;;;;;;;7.10;2.53;;;20.80;51.70;;;;;;5018898;28;20034;-63
2023/06/13 07:07:42;;;;;;;3.40;2.25;;;20.90;51.20;;;;;;5001309;28;20726;-63
2023/06/13 07:10:08;;;;;;;6.00;2.50;;;21.00;50.80;;;;;;5000623;28;20092;-62
2023/06/13 07:12:34;;;;;;;5.50;2.38;;;21.00;50.90;;;;;;5015689;28;20076;-62
2023/06/13 07:15:00;;;;;;;8.45;2.47;;;21.10;50.30;;;;;;4968893;28;20072;-62
2023/06/13 07:17:26;;;;;;;3.33;2.50;;;21.20;50.00;;;;;;5018083;28;20041;-62
2023/06/13 07:19:52;;;;;;;5.63;2.55;;;21.30;50.00;;;;;;5000227;28;20119;-62
2023/06/13 07:22:18;;;;;;;7.07;2.38;;;21.40;50.10;;;;;;5017464;28;20053;-62
2023/06/13 07:24:43;;;;;;;5.90;2.63;;;21.50;50.40;;;;;;5016774;28;20061;-62
2023/06/13 07:27:10;;;;;;;3.33;2.60;;;21.60;50.20;;;;;;4997898;28;20049;-62
2023/06/13 07:29:36;;;;;;;7.80;2.55;;;21.70;50.40;;;;;;4999388;28;20049;-62
2023/06/13 07:32:03;;;;;;;5.15;2.45;;;21.80;50.40;;;;;;4998985;28;20677;-62
2023/06/13 07:34:29;;;;;;;6.60;2.50;;;22.00;50.50;;;;;;5001773;28;20664;-62
2023/06/13 07:36:54;;;;;;;3.42;2.40;;;22.10;50.60;;;;;;5000611;28;20037;-62
2023/06/13 07:39:20;;;;;;;6.38;3.05;;;22.20;50.50;;;;;;5016924;28;20045;-62
2023/06/13 07:41:48;;;;;;;13.43;3.03;;;22.30;50.70;;;;;;4998778;28;20037;-63
2023/06/13 07:44:14;;;;;;;5.20;2.80;;;22.40;50.90;;;;;;5018297;28;20647;-62
2023/06/13 07:46:40;;;;;;;5.07;2.80;;;22.50;51.10;;;;;;5001921;28;20041;-62
2023/06/13 07:49:06;;;;;;;6.75;2.75;;;22.70;51.00;;;;;;5004759;28;20037;-62
2023/06/13 07:51:32;;;;;;;8.65;2.60;;;22.80;51.00;;;;;;5020609;28;20045;-62
2023/06/13 07:53:58;;;;;;;3.70;2.90;;;22.90;51.40;;;;;;5018732;28;20099;-63
2023/06/13 07:56:24;;;;;;;4.47;2.55;;;23.00;51.50;;;;;;4986735;28;20065;-62
2023/06/13 07:58:50;;;;;;;4.47;2.90;;;23.20;51.00;;;;;;5005426;28;20034;-62
2023/06/13 08:01:16;;;;;;;6.10;2.90;;;23.30;51.30;;;;;;5003105;28;20048;-62
2023/06/13 08:03:43;;;;;;;8.23;2.90;;;23.40;51.00;;;;;;5021959;28;20041;-62
2023/06/13 08:06:09;;;;;;;5.72;3.20;;;23.50;51.00;;;;;;5001959;28;20056;-62
2023/06/13 08:08:36;;;;;;;5.15;2.78;;;23.60;50.70;;;;;;5008040;28;20049;-62
2023/06/13 08:11:02;;;;;;;6.00;2.70;;;23.70;50.90;;;;;;5003737;28;20045;-62
2023/06/13 08:13:28;;;;;;;4.85;2.90;;;23.80;51.60;;;;;;4995778;28;20045;-62
2023/06/13 08:15:53;;;;;;;4.80;2.80;;;23.90;51.40;;;;;;5020746;28;20041;-62
2023/06/13 08:18:19;;;;;;;5.93;3.10;;;24.00;50.70;;;;;;5000113;28;20402;-62
2023/06/13 08:20:47;;;;;;;6.65;3.13;;;24.10;50.70;;;;;;5001437;28;20105;-62
2023/06/13 08:23:14;;;;;;;3.75;2.90;;;24.20;50.80;;;;;;5013383;28;20045;-63
2023/06/13 08:25:41;;;;;;;7.82;3.10;;;24.30;50.20;;;;;;5018109;28;20041;-62
2023/06/13 08:28:07;;;;;;;6.72;3.22;;;24.40;50.20;;;;;;5001356;28;20080;-62
2023/06/13 08:30:33;;;;;;;4.00;2.88;;;24.50;50.20;;;;;;5003338;28;20049;-62
2023/06/13 08:33:02;;;;;;;7.60;3.13;;;24.60;50.10;;;;;;5019041;28;20096;-62
2023/06/13 08:35:28;;;;;;;5.00;2.90;;;24.70;49.70;;;;;;4971371;28;20038;-63
2023/06/13 08:37:54;;;;;;;7.30;2.90;;;24.80;49.80;;;;;;5002408;28;20041;-62
2023/06/13 08:40:22;;;;;;;11.88;3.00;;;24.90;49.10;;;;;;4999279;28;20640;-62
2023/06/13 08:42:49;;;;;;;5.85;2.95;;;25.00;48.60;;;;;;4984605;28;20034;-62
2023/06/13 08:45:16;;;;;;;5.18;2.90;;;25.10;48.90;;;;;;5003528;28;20050;-62
2023/06/13 08:47:48;;;;;;;8.82;3.17;;;25.10;48.90;;;;;;5001429;28;20041;-62
2023/06/13 08:50:18;;;;;;;6.18;3.20;;;25.10;48.40;;;;;;5019093;28;20038;-62
2023/06/13 08:52:47;;;;;;;2.88;2.65;;;25.20;48.20;;;;;;5002209;28;20042;-62
2023/06/13 08:55:15;;;;;;;4.68;2.90;;;25.20;47.70;;;;;;5017463;28;20557;-62
2023/06/13 08:57:42;;;;;;;9.45;3.38;;;25.40;48.00;;;;;;5010277;28;20042;-62
2023/06/13 09:00:12;;;;;;;7.63;3.03;;;25.50;48.50;;;;;;5018436;28;20041;-62
2023/06/13 09:02:45;;;;;;;7.50;3.10;;;25.60;48.80;;;;;;5017092;28;20044;-62
2023/06/13 09:05:15;;;;;;;8.18;3.13;;;25.80;48.70;;;;;;5018921;28;20076;-62
2023/06/13 09:07:46;;;;;;;9.05;3.30;;;25.90;47.90;;;;;;5001988;28;20701;-62
2023/06/13 09:10:13;;;;;;;6.30;2.65;;;26.00;47.80;;;;;;5004323;28;20037;-62
2023/06/13 09:12:45;;;;;;;7.20;3.08;;;26.00;48.20;;;;;;5017733;28;20478;-62
2023/06/13 09:15:11;;;;;;;4.57;3.05;;;26.10;48.10;;;;;;5019704;28;20474;-62
2023/06/13 09:17:37;;;;;;;7.85;3.00;;;26.20;47.50;;;;;;5001234;28;20049;-63
2023/06/13 09:20:07;;;;;;;3.72;3.08;;;26.20;47.90;;;;;;5002799;28;20038;-62
2023/06/13 09:22:34;;;;;;;7.75;3.35;;;26.20;47.90;;;;;;5021085;28;20045;-62
2023/06/13 09:25:04;;;;;;;6.18;3.10;;;26.40;48.00;;;;;;5001681;28;20141;-62
2023/06/13 09:27:29;;;;;;;7.35;3.40;;;26.40;47.40;;;;;;5000554;28;20178;-62
2023/06/13 09:29:59;;;;;;;5.30;2.92;;;26.50;47.00;;;;;;5019140;28;20069;-62
2023/06/13 09:32:25;;;;;;;5.63;2.90;;;26.50;46.70;;;;;;5018278;28;20045;-62
2023/06/13 09:34:52;;;;;;;6.72;2.80;;;26.50;46.80;;;;;;5001176;28;20045;-62
2023/06/13 09:37:18;;;;;;;6.55;3.20;;;26.50;47.20;;;;;;5003513;28;20057;-62
2023/06/13 09:39:50;;;;;;;8.73;3.35;;;26.50;47.20;;;;;;5000224;28;20041;-62
2023/06/13 09:42:20;;;;;;;9.43;3.00;;;26.60;47.80;;;;;;4999215;28;20132;-62
2023/06/13 09:44:47;;;;;;;4.93;2.60;;;26.60;47.70;;;;;;5017571;28;20045;-62
2023/06/13 09:47:21;;;;;;;6.50;2.88;;;26.70;46.90;;;;;;5001792;28;20959;-62
2023/06/13 09:49:47;;;;;;;6.68;3.17;;;26.70;47.30;;;;;;5003912;28;20524;-62
2023/06/13 09:52:12;;;;;;;5.82;2.95;;;26.80;48.00;;;;;;5002920;28;20041;-62
2023/06/13 09:54:44;;;;;;;4.50;3.05;;;26.90;47.70;;;;;;5000494;28;20049;-62
2023/06/13 09:57:10;;;;;;;2.90;2.53;;;27.00;47.30;;;;;;4998425;28;20046;-62
2023/06/13 09:59:36;;;;;;;8.05;2.70;;;26.90;47.10;;;;;;5002758;28;20060;-62
2023/06/13 10:02:02;;;;;;;3.15;2.75;;;27.00;46.80;;;;;;5020137;28;20037;-62
2023/06/13 10:04:28;;;;;;;8.75;3.00;;;27.00;47.50;;;;;;5016883;28;20037;-62
2023/06/13 10:06:54;;;;;;;9.00;2.75;;;27.00;47.70;;;;;;5015606;28;20493;-63
2023/06/13 10:09:19;;;;;;;6.60;2.30;;;27.00;47.60;;;;;;4986518;28;20049;-62
2023/06/13 10:11:50;;;;;;;6.13;2.65;;;27.20;47.30;;;;;;4966555;28;20041;-62
2023/06/13 10:14:19;;;;;;;4.95;2.80;;;27.20;46.00;;;;;;5002287;28;20057;-62
2023/06/13 10:16:48;;;;;;;4.22;2.50;;;27.20;46.60;;;;;;5000607;28;20045;-62
2023/06/13 10:19:22;;;;;;;8.30;2.80;;;27.30;47.80;;;;;;5019232;28;20092;-62
2023/06/13 10:21:48;;;;;;;10.35;2.55;;;27.50;46.80;;;;;;5018823;28;20510;-62
2023/06/13 10:24:18;;;;;;;6.80;3.03;;;27.40;46.80;;;;;;5018108;28;20077;-62
2023/06/13 10:26:45;;;;;;;5.07;2.47;;;27.50;47.10;;;;;;5017786;28;20056;-62
2023/06/13 10:29:49;;;;;;;5.70;2.63;;;27.60;45.90;;;;;;5002024;28;20046;-63
2023/06/13 10:32:38;;;;;;;5.88;2.92;;;27.80;46.30;;;;;;5018454;28;20456;-63
2023/06/13 10:35:44;;;;;;;6.85;2.60;;;27.90;45.10;;;;;;4970866;28;20053;-62
2023/06/13 10:38:38;;;;;;;5.88;2.65;;;27.80;46.10;;;;;;5018974;28;20064;-62
2023/06/13 10:41:12;;;;;;;7.43;2.97;;;27.70;47.50;;;;;;5017202;28;20159;-62
2023/06/13 10:43:55;;;;;;;8.70;2.60;;;27.70;48.20;;;;;;5017563;28;20101;-63
2023/06/13 10:46:21;;;;;;;4.90;2.45;;;27.70;49.30;;;;;;5007649;28;20390;-62
2023/06/13 10:48:48;;;;;;;6.22;2.55;;;27.70;48.90;;;;;;4999228;28;20141;-63
2023/06/13 10:51:22;;;;;;;6.38;2.60;;;27.80;50.50;;;;;;5002367;28;20029;-62
2023/06/13 10:54:03;;;;;;;6.45;2.30;;;27.90;51.20;;;;;;4983366;28;20041;-62
2023/06/13 10:56:31;;;;;;;7.32;2.53;;;28.00;51.50;;;;;;5018151;28;20033;-62
2023/06/13 10:59:08;;;;;;;3.63;2.42;;;28.10;52.00;;;;;;5000887;28;20045;-62
2023/06/13 11:01:35;;;;;;;7.47;2.10;;;28.10;52.20;;;;;;5018410;28;20160;-62
2023/06/13 11:04:08;;;;;;;9.45;2.47;;;28.10;52.00;;;;;;5000405;28;20046;-62
2023/06/13 11:06:35;;;;;;;5.63;2.58;;;28.10;51.70;;;;;;4999934;28;20089;-62
2023/06/13 11:09:21;;;;;;;4.20;2.15;;;28.20;52.50;;;;;;4999425;28;20049;-62
2023/06/13 11:11:53;;;;;;;4.78;2.60;;;28.30;53.10;;;;;;5014122;28;20044;-62
2023/06/13 11:14:27;;;;;;;7.18;2.40;;;28.30;50.50;;;;;;5015860;28;24570;-62
2023/06/13 11:16:54;;;;;;;3.88;2.25;;;28.30;50.90;;;;;;4999782;28;20501;-62
2023/06/13 11:19:21;;;;;;;6.90;2.40;;;28.20;51.30;;;;;;5001165;28;20054;-62
2023/06/13 11:22:00;;;;;;;6.90;2.35;;;28.30;51.30;;;;;;5004672;28;20082;-62
2023/06/13 11:24:34;;;;;;;3.72;2.20;;;28.30;50.20;;;;;;5004250;28;20124;-62
2023/06/13 11:27:00;;;;;;;3.55;2.28;;;28.20;50.40;;;;;;4987237;28;20045;-62
2023/06/13 11:29:29;;;;;;;3.05;2.55;;;28.10;50.40;;;;;;5021874;28;20048;-62
2023/06/13 11:31:55;;;;;;;11.18;2.20;;;28.20;52.00;;;;;;5022877;28;20044;-62
2023/06/13 11:34:25;;;;;;;3.63;2.15;;;28.20;50.30;;;;;;5005043;28;20129;-62
2023/06/13 11:37:00;;;;;;;9.50;2.30;;;28.20;50.10;;;;;;5021800;28;20121;-62
2023/06/13 11:39:41;;;;;;;5.35;2.20;;;28.20;49.30;;;;;;5021912;28;20037;-62
2023/06/13 11:42:08;;;;;;;5.03;1.80;;;28.20;49.90;;;;;;5017426;28;20084;-62
2023/06/13 11:44:37;;;;;;;4.75;1.90;;;28.40;49.90;;;;;;5020173;28;20048;-63
2023/06/13 11:47:03;;;;;;;5.93;1.98;;;28.50;49.00;;;;;;5022005;28;20050;-62
2023/06/13 11:49:29;;;;;;;2.88;2.10;;;28.60;49.00;;;;;;5010486;28;20084;-62
2023/06/13 11:51:55;;;;;;;4.45;2.10;;;28.70;49.00;;;;;;5019232;28;20072;-64
2023/06/13 11:54:29;;;;;;;4.97;2.28;;;28.70;49.40;;;;;;4998839;28;20044;-64
2023/06/13 11:56:54;;;;;;;5.65;2.40;;;28.70;49.20;;;;;;5000790;28;20041;-64
2023/06/13 11:59:22;;;;;;;4.13;2.35;;;28.60;48.60;;;;;;5002768;28;20394;-64
2023/06/13 12:01:52;;;;;;;2.80;1.83;;;28.70;49.40;;;;;;5002142;28;20049;-64
2023/06/13 12:04:20;;;;;;;5.85;1.98;;;28.70;49.70;;;;;;5005749;28;20056;-64
2023/06/13 12:06:45;;;;;;;4.40;2.20;;;28.90;49.40;;;;;;5000549;28;20049;-64
2023/06/13 12:09:14;;;;;;;4.50;2.00;;;29.00;48.70;;;;;;5001697;28;20049;-64
2023/06/13 12:11:41;;;;;;;2.38;2.10;;;28.90;48.60;;;;;;5001993;28;20041;-65
2023/06/13 12:14:07;;;;;;;9.55;2.17;;;28.90;48.60;;;;;;5022935;28;20050;-64
2023/06/13 12:16:37;;;;;;;3.97;1.83;;;29.00;48.60;;;;;;4999131;28;20100;-64
2023/06/13 12:19:05;;;;;;;3.60;2.17;;;29.00;48.50;;;;;;5002932;28;20045;-64
2023/06/13 12:21:36;;;;;;;2.95;1.80;;;29.10;48.50;;;;;;5017162;28;20566;-64
2023/06/13 12:24:06;;;;;;;3.70;1.98;;;29.30;49.00;;;;;;4970173;28;20053;-65
2023/06/13 12:26:34;;;;;;;5.20;2.20;;;29.40;48.30;;;;;;5001399;28;20132;-65
2023/06/13 12:29:06;;;;;;;7.97;2.15;;;29.50;47.80;;;;;;5006128;28;20045;-64
2023/06/13 12:31:42;;;;;;;3.45;1.98;;;29.50;48.00;;;;;;4986583;28;20040;-64
2023/06/13 12:34:18;;;;;;;8.15;1.90;;;29.70;48.60;;;;;;5003819;28;20056;-65
2023/06/13 12:36:46;;;;;;;5.13;2.22;;;29.80;49.10;;;;;;5002962;28;20045;-65
2023/06/13 12:39:17;;;;;;;7.63;1.95;;;29.90;48.90;;;;;;4988366;28;20144;-64
2023/06/13 12:41:47;;;;;;;2.73;1.97;;;30.00;48.20;;;;;;4986240;28;20042;-65
2023/06/13 12:44:14;;;;;;;6.13;2.17;;;30.00;48.10;;;;;;4988122;28;20049;-64
2023/06/13 12:46:40;;;;;;;6.72;1.95;;;29.90;47.40;;;;;;5000897;28;20056;-64
2023/06/13 12:49:10;;;;;;;4.63;2.00;;;29.80;47.50;;;;;;4998879;28;20033;-64
2023/06/13 12:51:48;;;;;;;6.63;2.30;;;29.70;48.20;;;;;;5003351;28;20041;-65